sensor_id;sensor_type;location;lat;lon;timestamp;pressure;altitude;pressure_sealevel;temperature;humidity
929;BME280;451;47.988;7.842;2022-08-24T00:01:58;98460.25;;;19.96;83.01
929;BME280;451;47.988;7.842;2022-08-24T00:10:59;98470.09;;;19.84;83.19
929;BME280;451;47.988;7.842;2022-08-24T00:20:01;98522.09;;;19.93;84.84
929;BME280;451;47.988;7.842;2022-08-24T00:29:03;98503.41;;;19.93;83.18
929;BME280;451;47.988;7.842;2022-08-24T00:38:05;98509.59;;;20.05;82.78
929;BME280;451;47.988;7.842;2022-08-24T00:47:16;98490.50;;;19.66;84.63
929;BME280;451;47.988;7.842;2022-08-24T00:56:26;98518.13;;;19.84;85.09
929;BME280;451;47.988;7.842;2022-08-24T01:05:35;98513.09;;;19.64;86.67
929;BME280;451;47.988;7.842;2022-08-24T01:14:37;98350.06;;;18.59;86.60
929;BME280;451;47.988;7.842;2022-08-24T01:23:45;98517.59;;;19.33;88.34
929;BME280;451;47.988;7.842;2022-08-24T01:33:00;98515.88;;;19.39;89.22
929;BME280;451;47.988;7.842;2022-08-24T01:42:03;98513.91;;;19.16;90.93
929;BME280;451;47.988;7.842;2022-08-24T01:51:05;98451.38;;;18.64;92.19
929;BME280;451;47.988;7.842;2022-08-24T02:00:10;98532.94;;;19.02;93.54
929;BME280;451;47.988;7.842;2022-08-24T02:09:15;98432.25;;;18.49;92.50
929;BME280;451;47.988;7.842;2022-08-24T02:18:17;98466.94;;;18.67;92.82
929;BME280;451;47.988;7.842;2022-08-24T02:27:19;98520.56;;;18.89;94.24
929;BME280;451;47.988;7.842;2022-08-24T02:36:21;98523.53;;;18.81;94.17
929;BME280;451;47.988;7.842;2022-08-24T02:45:24;98511.00;;;18.63;94.60
929;BME280;451;47.988;7.842;2022-08-24T02:54:26;98507.69;;;18.68;96.41
929;BME280;451;47.988;7.842;2022-08-24T03:03:28;98503.41;;;18.42;98.84
929;BME280;451;47.988;7.842;2022-08-24T03:12:30;98495.72;;;18.34;99.17
929;BME280;451;47.988;7.842;2022-08-24T03:21:32;98463.69;;;17.97;99.91
929;BME280;451;47.988;7.842;2022-08-24T03:30:34;98431.06;;;17.84;100.00
929;BME280;451;47.988;7.842;2022-08-24T03:39:36;98498.16;;;18.35;99.91
929;BME280;451;47.988;7.842;2022-08-24T03:48:38;98498.84;;;18.24;100.00
929;BME280;451;47.988;7.842;2022-08-24T03:57:41;98430.34;;;17.70;100.00
929;BME280;451;47.988;7.842;2022-08-24T04:06:43;98501.88;;;18.09;100.00
929;BME280;451;47.988;7.842;2022-08-24T04:15:47;98449.22;;;17.62;100.00
929;BME280;451;47.988;7.842;2022-08-24T04:24:52;98468.25;;;17.59;100.00
929;BME280;451;47.988;7.842;2022-08-24T04:33:54;98463.75;;;17.59;100.00
929;BME280;451;47.988;7.842;2022-08-24T04:42:55;98467.75;;;17.75;100.00
929;BME280;451;47.988;7.842;2022-08-24T04:52:01;98472.91;;;17.70;100.00
929;BME280;451;47.988;7.842;2022-08-24T05:01:11;98480.09;;;17.56;100.00
929;BME280;451;47.988;7.842;2022-08-24T05:10:13;98540.19;;;18.02;100.00
929;BME280;451;47.988;7.842;2022-08-24T05:19:15;98494.59;;;17.98;100.00
929;BME280;451;47.988;7.842;2022-08-24T05:28:17;98533.28;;;18.44;99.41
929;BME280;451;47.988;7.842;2022-08-24T05:37:19;98483.69;;;18.25;97.38
929;BME280;451;47.988;7.842;2022-08-24T05:46:40;98506.00;;;18.73;94.30
929;BME280;451;47.988;7.842;2022-08-24T05:55:43;98515.78;;;18.98;92.52
929;BME280;451;47.988;7.842;2022-08-24T06:04:45;98496.75;;;19.42;90.09
929;BME280;451;47.988;7.842;2022-08-24T06:13:46;98537.47;;;20.09;86.87
929;BME280;451;47.988;7.842;2022-08-24T06:22:49;98543.88;;;20.31;85.64
929;BME280;451;47.988;7.842;2022-08-24T06:31:52;98540.31;;;20.84;82.59
929;BME280;451;47.988;7.842;2022-08-24T06:40:54;98516.00;;;21.49;78.80
929;BME280;451;47.988;7.842;2022-08-24T06:49:59;98540.31;;;22.54;75.04
929;BME280;451;47.988;7.842;2022-08-24T06:59:04;98507.63;;;22.57;72.29
929;BME280;451;47.988;7.842;2022-08-24T07:08:07;98522.13;;;23.38;70.54
929;BME280;451;47.988;7.842;2022-08-24T07:17:09;98504.47;;;23.42;69.56
929;BME280;451;47.988;7.842;2022-08-24T07:26:15;98558.72;;;23.66;70.26
929;BME280;451;47.988;7.842;2022-08-24T07:35:19;98571.38;;;23.70;66.58
929;BME280;451;47.988;7.842;2022-08-24T07:44:21;98567.06;;;23.96;65.30
929;BME280;451;47.988;7.842;2022-08-24T07:53:23;98560.34;;;24.58;64.73
929;BME280;451;47.988;7.842;2022-08-24T08:02:26;98573.41;;;24.81;64.64
929;BME280;451;47.988;7.842;2022-08-24T08:11:28;98521.53;;;24.43;62.69
929;BME280;451;47.988;7.842;2022-08-24T08:20:30;98574.28;;;25.39;60.61
929;BME280;451;47.988;7.842;2022-08-24T08:29:33;98548.97;;;25.29;58.69
929;BME280;451;47.988;7.842;2022-08-24T08:38:38;98522.63;;;25.52;57.71
929;BME280;451;47.988;7.842;2022-08-24T08:48:21;98552.94;;;26.09;56.51
929;BME280;451;47.988;7.842;2022-08-24T09:25:44;98561.47;;;27.18;58.18
929;BME280;451;47.988;7.842;2022-08-24T09:34:52;98559.41;;;26.89;60.12
929;BME280;451;47.988;7.842;2022-08-24T10:11:52;98494.75;;;30.16;45.79
929;BME280;451;47.988;7.842;2022-08-24T10:31:02;98476.16;;;30.09;44.18
929;BME280;451;47.988;7.842;2022-08-24T10:40:51;98462.00;;;30.99;43.01
929;BME280;451;47.988;7.842;2022-08-24T10:58:51;98452.84;;;31.22;33.89
929;BME280;451;47.988;7.842;2022-08-24T11:08:00;98409.78;;;31.16;34.34
929;BME280;451;47.988;7.842;2022-08-24T11:17:15;98438.88;;;31.51;33.21
929;BME280;451;47.988;7.842;2022-08-24T11:26:19;98440.38;;;32.02;32.73
929;BME280;451;47.988;7.842;2022-08-24T11:35:23;98439.66;;;31.30;32.50
929;BME280;451;47.988;7.842;2022-08-24T12:02:55;98396.94;;;32.98;31.79
929;BME280;451;47.988;7.842;2022-08-24T12:21:38;98426.34;;;32.70;31.85
929;BME280;451;47.988;7.842;2022-08-24T12:30:41;98368.47;;;32.65;29.92
929;BME280;451;47.988;7.842;2022-08-24T12:39:47;98423.16;;;32.37;30.26
929;BME280;451;47.988;7.842;2022-08-24T13:25:58;98386.94;;;32.68;28.81
929;BME280;451;47.988;7.842;2022-08-24T13:45:06;98358.19;;;33.44;28.00
929;BME280;451;47.988;7.842;2022-08-24T13:54:25;98289.22;;;33.18;30.10
929;BME280;451;47.988;7.842;2022-08-24T14:03:40;98353.88;;;33.35;27.10
929;BME280;451;47.988;7.842;2022-08-24T14:13:36;98353.69;;;32.49;27.86
929;BME280;451;47.988;7.842;2022-08-24T14:31:13;98335.25;;;33.37;27.61
929;BME280;451;47.988;7.842;2022-08-24T14:40:31;98339.94;;;32.54;26.90
929;BME280;451;47.988;7.842;2022-08-24T14:49:36;98330.56;;;33.11;25.56
929;BME280;451;47.988;7.842;2022-08-24T14:58:48;98334.16;;;32.55;26.12
929;BME280;451;47.988;7.842;2022-08-24T15:08:12;98311.41;;;32.51;25.93
929;BME280;451;47.988;7.842;2022-08-24T15:36:58;98305.94;;;32.42;26.02
929;BME280;451;47.988;7.842;2022-08-24T15:46:01;98293.28;;;31.98;27.19
929;BME280;451;47.988;7.842;2022-08-24T15:55:05;98206.16;;;31.42;27.65
929;BME280;451;47.988;7.842;2022-08-24T16:04:13;98299.25;;;31.70;27.67
929;BME280;451;47.988;7.842;2022-08-24T16:13:33;98279.06;;;31.40;26.90
929;BME280;451;47.988;7.842;2022-08-24T16:22:39;98307.34;;;31.39;27.40
929;BME280;451;47.988;7.842;2022-08-24T16:31:49;98203.88;;;30.68;28.13
929;BME280;451;47.988;7.842;2022-08-24T16:40:52;98272.91;;;30.90;28.45
929;BME280;451;47.988;7.842;2022-08-24T16:49:54;98303.53;;;31.04;29.62
929;BME280;451;47.988;7.842;2022-08-24T16:58:56;98305.78;;;30.88;29.96
929;BME280;451;47.988;7.842;2022-08-24T17:07:59;98315.09;;;30.46;30.08
929;BME280;451;47.988;7.842;2022-08-24T17:17:04;98319.13;;;30.21;31.32
929;BME280;451;47.988;7.842;2022-08-24T17:26:12;98272.50;;;29.78;32.12
929;BME280;451;47.988;7.842;2022-08-24T17:35:15;98312.72;;;30.03;32.67
929;BME280;451;47.988;7.842;2022-08-24T17:44:20;98335.19;;;30.18;32.84
929;BME280;451;47.988;7.842;2022-08-24T17:53:25;98342.41;;;29.62;33.68
929;BME280;451;47.988;7.842;2022-08-24T18:02:26;98316.63;;;29.14;34.74
929;BME280;451;47.988;7.842;2022-08-24T18:11:28;98359.75;;;29.10;35.83
929;BME280;451;47.988;7.842;2022-08-24T18:20:33;98367.63;;;28.88;36.06
929;BME280;451;47.988;7.842;2022-08-24T18:29:39;98399.91;;;28.61;37.50
929;BME280;451;47.988;7.842;2022-08-24T18:38:41;98375.38;;;27.71;40.31
929;BME280;451;47.988;7.842;2022-08-24T18:47:42;98401.22;;;27.43;42.89
929;BME280;451;47.988;7.842;2022-08-24T18:56:44;98376.16;;;26.93;45.54
929;BME280;451;47.988;7.842;2022-08-24T19:05:46;98432.56;;;26.95;48.80
929;BME280;451;47.988;7.842;2022-08-24T19:14:52;98401.63;;;26.62;52.08
929;BME280;451;47.988;7.842;2022-08-24T19:23:56;98343.31;;;25.81;55.98
929;BME280;451;47.988;7.842;2022-08-24T19:32:59;98378.34;;;25.91;60.17
929;BME280;451;47.988;7.842;2022-08-24T19:42:01;98353.03;;;25.72;62.40
929;BME280;451;47.988;7.842;2022-08-24T19:51:05;98403.66;;;25.85;65.16
929;BME280;451;47.988;7.842;2022-08-24T20:09:19;98409.00;;;25.50;69.18
929;BME280;451;47.988;7.842;2022-08-24T20:18:30;98394.69;;;25.19;71.68
929;BME280;451;47.988;7.842;2022-08-24T20:27:33;98341.75;;;24.52;74.16
929;BME280;451;47.988;7.842;2022-08-24T20:36:37;98405.13;;;24.95;75.58
929;BME280;451;47.988;7.842;2022-08-24T20:45:40;98409.34;;;24.81;77.14
929;BME280;451;47.988;7.842;2022-08-24T20:54:42;98378.00;;;24.44;78.78
929;BME280;451;47.988;7.842;2022-08-24T21:03:44;98354.81;;;24.23;79.60
929;BME280;451;47.988;7.842;2022-08-24T21:12:46;98349.84;;;24.10;80.82
929;BME280;451;47.988;7.842;2022-08-24T21:21:49;98405.22;;;24.11;82.93
929;BME280;451;47.988;7.842;2022-08-24T21:30:51;98354.91;;;23.64;84.16
929;BME280;451;47.988;7.842;2022-08-24T21:39:52;98409.41;;;23.97;85.43
929;BME280;451;47.988;7.842;2022-08-24T21:48:54;98404.75;;;23.87;86.32
929;BME280;451;47.988;7.842;2022-08-24T21:57:56;98370.88;;;23.49;87.85
929;BME280;451;47.988;7.842;2022-08-24T22:06:58;98397.53;;;23.56;89.83
929;BME280;451;47.988;7.842;2022-08-24T22:16:00;98353.31;;;23.05;92.04
929;BME280;451;47.988;7.842;2022-08-24T22:25:05;98387.19;;;23.16;93.97
929;BME280;451;47.988;7.842;2022-08-24T22:34:13;98367.66;;;22.93;95.89
929;BME280;451;47.988;7.842;2022-08-24T22:43:16;98280.06;;;22.29;96.11
929;BME280;451;47.988;7.842;2022-08-24T22:52:17;98332.44;;;22.63;95.35
929;BME280;451;47.988;7.842;2022-08-24T23:01:25;98367.72;;;22.99;94.73
929;BME280;451;47.988;7.842;2022-08-24T23:10:27;98383.38;;;23.12;93.71
929;BME280;451;47.988;7.842;2022-08-24T23:19:30;98384.34;;;23.01;93.68
929;BME280;451;47.988;7.842;2022-08-24T23:28:51;98383.47;;;23.17;92.48
929;BME280;451;47.988;7.842;2022-08-24T23:37:52;98399.13;;;23.30;91.69
929;BME280;451;47.988;7.842;2022-08-24T23:46:55;98376.47;;;23.16;90.64
929;BME280;451;47.988;7.842;2022-08-24T23:56:05;98389.69;;;23.22;92.15
